Terminal Aerodrome Forecast
Issued by NWS Jackson, KY

Home | Current Version | Previous Version | Text Only | Print | Product List | Glossary On
Versions: 1 2 3 4 5 6 7 8 9 10 11 12 13 14 15 16 17 18 19
000
FTUS43 KJKL 182300
TAFJKL
TAF
KJKL 182325Z 1900/1924 31005KT P6SM VCSH BKN045 OVC050
     FM190900 VRB03KT 4SM BR BKN015
     FM191100 00000KT 2SM BR FEW250
     FM191300 00000KT 6SM BR FEW050 FEW250
     FM191400 00000KT P6SM SCT050=

USA.gov is the U.S. government's official web portal to all federal, state and local government web resources and services.